sensor_id;sensor_type;location;lat;lon;timestamp;temperature;humidity
12870;DHT22;6503;48.572;13.460;2022-11-14T00:00:48;10.30;99.90
12870;DHT22;6503;48.572;13.460;2022-11-14T00:03:15;10.30;99.90
12870;DHT22;6503;48.572;13.460;2022-11-14T00:05:43;10.30;99.90
12870;DHT22;6503;48.572;13.460;2022-11-14T00:08:15;10.20;99.90
12870;DHT22;6503;48.572;13.460;2022-11-14T00:10:44;10.20;99.90
12870;DHT22;6503;48.572;13.460;2022-11-14T00:13:11;10.20;99.90
12870;DHT22;6503;48.572;13.460;2022-11-14T00:15:41;10.10;99.90
12870;DHT22;6503;48.572;13.460;2022-11-14T00:18:11;10.00;99.90
12870;DHT22;6503;48.572;13.460;2022-11-14T00:20:38;10.00;99.90
12870;DHT22;6503;48.572;13.460;2022-11-14T00:23:05;10.00;99.90
12870;DHT22;6503;48.572;13.460;2022-11-14T00:25:49;10.00;99.90
12870;DHT22;6503;48.572;13.460;2022-11-14T00:28:18;9.90;99.90
12870;DHT22;6503;48.572;13.460;2022-11-14T00:30:48;9.80;99.90
12870;DHT22;6503;48.572;13.460;2022-11-14T00:33:18;9.90;99.90
12870;DHT22;6503;48.572;13.460;2022-11-14T00:35:52;9.80;99.90
12870;DHT22;6503;48.572;13.460;2022-11-14T00:38:19;9.90;99.90
12870;DHT22;6503;48.572;13.460;2022-11-14T00:40:49;10.00;99.90
12870;DHT22;6503;48.572;13.460;2022-11-14T00:43:17;10.00;99.90
12870;DHT22;6503;48.572;13.460;2022-11-14T00:45:44;9.90;99.90
12870;DHT22;6503;48.572;13.460;2022-11-14T00:48:13;10.20;99.90
12870;DHT22;6503;48.572;13.460;2022-11-14T00:50:40;10.20;99.90
12870;DHT22;6503;48.572;13.460;2022-11-14T00:53:07;10.20;99.90
12870;DHT22;6503;48.572;13.460;2022-11-14T00:55:34;10.20;99.90
12870;DHT22;6503;48.572;13.460;2022-11-14T00:58:04;10.10;99.90
12870;DHT22;6503;48.572;13.460;2022-11-14T01:00:30;10.10;99.90
12870;DHT22;6503;48.572;13.460;2022-11-14T01:02:57;10.10;99.90
12870;DHT22;6503;48.572;13.460;2022-11-14T01:05:24;10.10;99.90
12870;DHT22;6503;48.572;13.460;2022-11-14T01:07:51;10.00;99.90
12870;DHT22;6503;48.572;13.460;2022-11-14T01:10:19;10.00;99.90
12870;DHT22;6503;48.572;13.460;2022-11-14T01:12:48;10.00;99.90
12870;DHT22;6503;48.572;13.460;2022-11-14T01:15:18;10.10;99.90
12870;DHT22;6503;48.572;13.460;2022-11-14T01:18:00;10.10;99.90
12870;DHT22;6503;48.572;13.460;2022-11-14T01:20:28;10.10;99.90
12870;DHT22;6503;48.572;13.460;2022-11-14T01:22:54;10.10;99.90
12870;DHT22;6503;48.572;13.460;2022-11-14T01:25:21;10.10;99.90
12870;DHT22;6503;48.572;13.460;2022-11-14T01:27:48;10.20;99.90
12870;DHT22;6503;48.572;13.460;2022-11-14T01:30:16;10.20;99.90
12870;DHT22;6503;48.572;13.460;2022-11-14T01:32:43;10.10;99.90
12870;DHT22;6503;48.572;13.460;2022-11-14T01:35:10;10.10;99.90
12870;DHT22;6503;48.572;13.460;2022-11-14T01:37:37;10.20;99.90
12870;DHT22;6503;48.572;13.460;2022-11-14T01:40:06;10.20;99.90
12870;DHT22;6503;48.572;13.460;2022-11-14T01:42:34;10.10;99.90
12870;DHT22;6503;48.572;13.460;2022-11-14T01:48:03;10.10;99.90
12870;DHT22;6503;48.572;13.460;2022-11-14T01:50:30;10.10;99.90
12870;DHT22;6503;48.572;13.460;2022-11-14T01:52:57;10.00;99.90
12870;DHT22;6503;48.572;13.460;2022-11-14T01:55:24;9.80;99.90
12870;DHT22;6503;48.572;13.460;2022-11-14T01:57:51;9.70;99.90
12870;DHT22;6503;48.572;13.460;2022-11-14T02:00:20;9.70;99.90
12870;DHT22;6503;48.572;13.460;2022-11-14T02:02:47;9.70;99.90
12870;DHT22;6503;48.572;13.460;2022-11-14T02:05:16;9.80;99.90
12870;DHT22;6503;48.572;13.460;2022-11-14T02:07:44;9.80;99.90
12870;DHT22;6503;48.572;13.460;2022-11-14T02:10:16;9.80;99.90
12870;DHT22;6503;48.572;13.460;2022-11-14T02:12:44;9.80;99.90
12870;DHT22;6503;48.572;13.460;2022-11-14T02:15:13;9.80;99.90
12870;DHT22;6503;48.572;13.460;2022-11-14T02:17:40;9.70;99.90
12870;DHT22;6503;48.572;13.460;2022-11-14T02:20:22;9.70;99.90
12870;DHT22;6503;48.572;13.460;2022-11-14T02:22:52;9.70;99.90
12870;DHT22;6503;48.572;13.460;2022-11-14T02:25:21;9.70;99.90
12870;DHT22;6503;48.572;13.460;2022-11-14T02:27:48;9.70;99.90
12870;DHT22;6503;48.572;13.460;2022-11-14T02:30:20;9.60;99.90
12870;DHT22;6503;48.572;13.460;2022-11-14T02:32:47;9.70;99.90
12870;DHT22;6503;48.572;13.460;2022-11-14T02:35:14;9.70;99.90
12870;DHT22;6503;48.572;13.460;2022-11-14T02:37:43;9.80;99.90
12870;DHT22;6503;48.572;13.460;2022-11-14T02:40:10;9.80;99.90
12870;DHT22;6503;48.572;13.460;2022-11-14T02:42:38;9.80;99.90
12870;DHT22;6503;48.572;13.460;2022-11-14T02:45:06;9.70;99.90
12870;DHT22;6503;48.572;13.460;2022-11-14T02:47:33;9.70;99.90
12870;DHT22;6503;48.572;13.460;2022-11-14T02:50:01;9.70;99.90
12870;DHT22;6503;48.572;13.460;2022-11-14T02:52:30;9.60;99.90
12870;DHT22;6503;48.572;13.460;2022-11-14T02:54:58;9.60;99.90
12870;DHT22;6503;48.572;13.460;2022-11-14T02:57:25;9.60;99.90
12870;DHT22;6503;48.572;13.460;2022-11-14T02:59:51;9.60;99.90
12870;DHT22;6503;48.572;13.460;2022-11-14T03:02:18;9.60;99.90
12870;DHT22;6503;48.572;13.460;2022-11-14T03:04:45;9.60;99.90
12870;DHT22;6503;48.572;13.460;2022-11-14T03:07:19;9.60;99.90
12870;DHT22;6503;48.572;13.460;2022-11-14T03:09:45;9.60;99.90
12870;DHT22;6503;48.572;13.460;2022-11-14T03:12:17;9.60;99.90
12870;DHT22;6503;48.572;13.460;2022-11-14T03:14:44;9.60;99.90
12870;DHT22;6503;48.572;13.460;2022-11-14T03:17:11;9.60;99.90
12870;DHT22;6503;48.572;13.460;2022-11-14T03:19:38;9.50;99.90
12870;DHT22;6503;48.572;13.460;2022-11-14T03:22:05;9.50;99.90
12870;DHT22;6503;48.572;13.460;2022-11-14T03:24:32;9.50;99.90
12870;DHT22;6503;48.572;13.460;2022-11-14T03:26:59;9.50;99.90
12870;DHT22;6503;48.572;13.460;2022-11-14T03:29:27;9.50;99.90
12870;DHT22;6503;48.572;13.460;2022-11-14T03:31:54;9.50;99.90
12870;DHT22;6503;48.572;13.460;2022-11-14T03:34:20;9.50;99.90
12870;DHT22;6503;48.572;13.460;2022-11-14T03:36:47;9.50;99.90
12870;DHT22;6503;48.572;13.460;2022-11-14T03:39:15;9.50;99.90
12870;DHT22;6503;48.572;13.460;2022-11-14T03:41:43;9.50;99.90
12870;DHT22;6503;48.572;13.460;2022-11-14T03:44:10;9.50;99.90
12870;DHT22;6503;48.572;13.460;2022-11-14T03:46:38;9.40;99.90
12870;DHT22;6503;48.572;13.460;2022-11-14T03:49:05;9.30;99.90
12870;DHT22;6503;48.572;13.460;2022-11-14T03:51:34;9.30;99.90
12870;DHT22;6503;48.572;13.460;2022-11-14T03:54:01;9.30;99.90
12870;DHT22;6503;48.572;13.460;2022-11-14T03:56:27;9.20;99.90
12870;DHT22;6503;48.572;13.460;2022-11-14T03:58:54;9.30;99.90
12870;DHT22;6503;48.572;13.460;2022-11-14T04:01:30;9.30;99.90
12870;DHT22;6503;48.572;13.460;2022-11-14T04:03:58;9.30;99.90
12870;DHT22;6503;48.572;13.460;2022-11-14T04:06:28;9.30;99.90
12870;DHT22;6503;48.572;13.460;2022-11-14T04:08:55;9.30;99.90
12870;DHT22;6503;48.572;13.460;2022-11-14T04:11:21;9.30;99.90
12870;DHT22;6503;48.572;13.460;2022-11-14T04:13:48;9.30;99.90
12870;DHT22;6503;48.572;13.460;2022-11-14T04:16:15;9.20;99.90
12870;DHT22;6503;48.572;13.460;2022-11-14T04:18:42;9.20;99.90
12870;DHT22;6503;48.572;13.460;2022-11-14T04:21:10;9.20;99.90
12870;DHT22;6503;48.572;13.460;2022-11-14T04:23:37;9.20;99.90
12870;DHT22;6503;48.572;13.460;2022-11-14T04:26:04;9.20;99.90
12870;DHT22;6503;48.572;13.460;2022-11-14T04:28:31;9.20;99.90
12870;DHT22;6503;48.572;13.460;2022-11-14T04:30:58;9.30;99.90
12870;DHT22;6503;48.572;13.460;2022-11-14T04:33:29;9.20;99.90
12870;DHT22;6503;48.572;13.460;2022-11-14T04:35:55;9.20;99.90
12870;DHT22;6503;48.572;13.460;2022-11-14T04:38:24;9.30;99.90
12870;DHT22;6503;48.572;13.460;2022-11-14T04:40:51;9.30;99.90
12870;DHT22;6503;48.572;13.460;2022-11-14T04:43:19;9.40;99.90
12870;DHT22;6503;48.572;13.460;2022-11-14T04:45:46;9.40;99.90
12870;DHT22;6503;48.572;13.460;2022-11-14T04:48:13;9.40;99.90
12870;DHT22;6503;48.572;13.460;2022-11-14T04:50:40;9.40;99.90
12870;DHT22;6503;48.572;13.460;2022-11-14T04:53:07;9.30;99.90
12870;DHT22;6503;48.572;13.460;2022-11-14T04:55:35;9.30;99.90
12870;DHT22;6503;48.572;13.460;2022-11-14T04:58:02;9.30;99.90
12870;DHT22;6503;48.572;13.460;2022-11-14T05:00:28;9.20;99.90
12870;DHT22;6503;48.572;13.460;2022-11-14T05:02:57;9.20;99.90
12870;DHT22;6503;48.572;13.460;2022-11-14T05:05:24;9.10;99.90
12870;DHT22;6503;48.572;13.460;2022-11-14T05:07:53;9.10;99.90
12870;DHT22;6503;48.572;13.460;2022-11-14T05:10:20;9.00;99.90
12870;DHT22;6503;48.572;13.460;2022-11-14T05:12:52;9.00;99.90
12870;DHT22;6503;48.572;13.460;2022-11-14T05:15:18;8.90;99.90
12870;DHT22;6503;48.572;13.460;2022-11-14T05:17:47;8.90;99.90
12870;DHT22;6503;48.572;13.460;2022-11-14T05:20:13;8.90;99.90
12870;DHT22;6503;48.572;13.460;2022-11-14T05:22:40;8.90;99.90
12870;DHT22;6503;48.572;13.460;2022-11-14T05:25:08;8.80;99.90
12870;DHT22;6503;48.572;13.460;2022-11-14T05:27:35;8.80;99.90
12870;DHT22;6503;48.572;13.460;2022-11-14T05:30:04;8.80;99.90
12870;DHT22;6503;48.572;13.460;2022-11-14T05:32:32;8.70;99.90
12870;DHT22;6503;48.572;13.460;2022-11-14T05:34:59;8.60;99.90
12870;DHT22;6503;48.572;13.460;2022-11-14T05:37:27;8.50;99.90
12870;DHT22;6503;48.572;13.460;2022-11-14T05:39:54;8.40;99.90
12870;DHT22;6503;48.572;13.460;2022-11-14T05:42:24;8.30;99.90
12870;DHT22;6503;48.572;13.460;2022-11-14T05:44:52;8.20;99.90
12870;DHT22;6503;48.572;13.460;2022-11-14T05:47:21;8.10;99.90
12870;DHT22;6503;48.572;13.460;2022-11-14T05:49:48;8.00;99.90
12870;DHT22;6503;48.572;13.460;2022-11-14T05:52:15;7.90;99.90
12870;DHT22;6503;48.572;13.460;2022-11-14T05:54:42;7.90;99.90
12870;DHT22;6503;48.572;13.460;2022-11-14T05:57:08;7.80;99.90
12870;DHT22;6503;48.572;13.460;2022-11-14T05:59:36;7.80;99.90
12870;DHT22;6503;48.572;13.460;2022-11-14T06:02:04;7.80;99.90
12870;DHT22;6503;48.572;13.460;2022-11-14T06:04:32;7.80;99.90
12870;DHT22;6503;48.572;13.460;2022-11-14T06:06:58;7.90;99.90
12870;DHT22;6503;48.572;13.460;2022-11-14T06:09:25;7.80;99.90
12870;DHT22;6503;48.572;13.460;2022-11-14T06:11:52;7.80;99.90
12870;DHT22;6503;48.572;13.460;2022-11-14T06:14:19;7.90;99.90
12870;DHT22;6503;48.572;13.460;2022-11-14T06:16:46;7.80;99.90
12870;DHT22;6503;48.572;13.460;2022-11-14T06:19:12;7.80;99.90
12870;DHT22;6503;48.572;13.460;2022-11-14T06:21:41;7.70;99.90
12870;DHT22;6503;48.572;13.460;2022-11-14T06:24:07;7.60;99.90
12870;DHT22;6503;48.572;13.460;2022-11-14T06:26:34;7.60;99.90
12870;DHT22;6503;48.572;13.460;2022-11-14T06:29:01;7.50;99.90
12870;DHT22;6503;48.572;13.460;2022-11-14T06:31:28;7.40;99.90
12870;DHT22;6503;48.572;13.460;2022-11-14T06:33:55;7.40;99.90
12870;DHT22;6503;48.572;13.460;2022-11-14T06:36:22;7.50;99.90
12870;DHT22;6503;48.572;13.460;2022-11-14T06:38:50;7.50;99.90
12870;DHT22;6503;48.572;13.460;2022-11-14T06:41:19;7.50;99.90
12870;DHT22;6503;48.572;13.460;2022-11-14T06:43:52;7.60;99.90
12870;DHT22;6503;48.572;13.460;2022-11-14T06:46:20;7.50;99.90
12870;DHT22;6503;48.572;13.460;2022-11-14T06:48:48;7.40;99.90
12870;DHT22;6503;48.572;13.460;2022-11-14T06:51:16;7.40;99.90
12870;DHT22;6503;48.572;13.460;2022-11-14T06:54:26;7.30;99.90
12870;DHT22;6503;48.572;13.460;2022-11-14T06:57:22;7.30;99.90
12870;DHT22;6503;48.572;13.460;2022-11-14T07:00:06;7.30;99.90
12870;DHT22;6503;48.572;13.460;2022-11-14T07:02:45;7.40;99.90
12870;DHT22;6503;48.572;13.460;2022-11-14T07:05:18;7.90;99.90
12870;DHT22;6503;48.572;13.460;2022-11-14T07:11:27;8.20;99.90
12870;DHT22;6503;48.572;13.460;2022-11-14T07:13:56;8.20;99.90
12870;DHT22;6503;48.572;13.460;2022-11-14T07:16:24;8.30;99.90
12870;DHT22;6503;48.572;13.460;2022-11-14T07:18:51;8.40;99.90
12870;DHT22;6503;48.572;13.460;2022-11-14T07:21:28;8.30;99.90
12870;DHT22;6503;48.572;13.460;2022-11-14T07:24:12;8.20;99.90
12870;DHT22;6503;48.572;13.460;2022-11-14T07:26:40;8.30;99.90
12870;DHT22;6503;48.572;13.460;2022-11-14T07:29:08;8.40;99.90
12870;DHT22;6503;48.572;13.460;2022-11-14T07:31:34;8.20;99.90
12870;DHT22;6503;48.572;13.460;2022-11-14T07:34:01;8.20;99.90
12870;DHT22;6503;48.572;13.460;2022-11-14T07:36:30;8.10;99.90
12870;DHT22;6503;48.572;13.460;2022-11-14T07:38:57;8.20;99.90
12870;DHT22;6503;48.572;13.460;2022-11-14T07:41:24;8.40;99.90
12870;DHT22;6503;48.572;13.460;2022-11-14T07:43:52;8.60;99.90
12870;DHT22;6503;48.572;13.460;2022-11-14T07:46:19;8.70;99.90
12870;DHT22;6503;48.572;13.460;2022-11-14T07:48:46;8.80;99.90
12870;DHT22;6503;48.572;13.460;2022-11-14T07:51:15;8.90;99.90
12870;DHT22;6503;48.572;13.460;2022-11-14T07:53:42;9.00;99.90
12870;DHT22;6503;48.572;13.460;2022-11-14T07:56:10;9.00;99.90
12870;DHT22;6503;48.572;13.460;2022-11-14T07:58:43;8.90;99.90
12870;DHT22;6503;48.572;13.460;2022-11-14T08:01:13;8.80;99.90
12870;DHT22;6503;48.572;13.460;2022-11-14T08:03:41;8.90;99.90
12870;DHT22;6503;48.572;13.460;2022-11-14T08:06:11;9.10;99.90
12870;DHT22;6503;48.572;13.460;2022-11-14T08:08:37;9.20;99.90
12870;DHT22;6503;48.572;13.460;2022-11-14T08:11:05;9.40;99.90
12870;DHT22;6503;48.572;13.460;2022-11-14T08:13:32;9.50;99.90
12870;DHT22;6503;48.572;13.460;2022-11-14T08:16:03;9.60;99.90
12870;DHT22;6503;48.572;13.460;2022-11-14T08:18:31;9.70;99.90
12870;DHT22;6503;48.572;13.460;2022-11-14T08:21:02;9.60;99.90
12870;DHT22;6503;48.572;13.460;2022-11-14T08:23:30;9.70;99.90
12870;DHT22;6503;48.572;13.460;2022-11-14T08:26:05;9.70;99.90
12870;DHT22;6503;48.572;13.460;2022-11-14T08:32:16;10.00;99.90
12870;DHT22;6503;48.572;13.460;2022-11-14T08:34:56;10.00;99.90
12870;DHT22;6503;48.572;13.460;2022-11-14T08:37:23;10.10;99.90
12870;DHT22;6503;48.572;13.460;2022-11-14T08:39:50;10.30;99.90
12870;DHT22;6503;48.572;13.460;2022-11-14T08:42:16;10.50;99.90
12870;DHT22;6503;48.572;13.460;2022-11-14T08:44:43;10.60;99.90
12870;DHT22;6503;48.572;13.460;2022-11-14T08:47:11;10.80;99.90
12870;DHT22;6503;48.572;13.460;2022-11-14T08:49:42;10.90;99.90
12870;DHT22;6503;48.572;13.460;2022-11-14T08:52:10;11.10;99.90
12870;DHT22;6503;48.572;13.460;2022-11-14T08:54:37;11.30;99.90
12870;DHT22;6503;48.572;13.460;2022-11-14T08:57:04;11.50;99.90
12870;DHT22;6503;48.572;13.460;2022-11-14T08:59:37;11.70;99.90
12870;DHT22;6503;48.572;13.460;2022-11-14T09:02:04;11.90;99.90
12870;DHT22;6503;48.572;13.460;2022-11-14T09:04:33;12.00;99.90
12870;DHT22;6503;48.572;13.460;2022-11-14T09:07:00;12.20;99.90
12870;DHT22;6503;48.572;13.460;2022-11-14T09:09:30;12.30;99.90
12870;DHT22;6503;48.572;13.460;2022-11-14T09:11:58;12.30;99.90
12870;DHT22;6503;48.572;13.460;2022-11-14T09:14:25;12.40;99.90
12870;DHT22;6503;48.572;13.460;2022-11-14T09:16:52;12.50;99.90
12870;DHT22;6503;48.572;13.460;2022-11-14T09:19:19;12.60;99.90
12870;DHT22;6503;48.572;13.460;2022-11-14T09:21:46;12.60;99.90
12870;DHT22;6503;48.572;13.460;2022-11-14T09:24:13;12.60;99.90
12870;DHT22;6503;48.572;13.460;2022-11-14T09:26:41;12.50;99.90
12870;DHT22;6503;48.572;13.460;2022-11-14T09:29:08;12.30;99.90
12870;DHT22;6503;48.572;13.460;2022-11-14T09:31:35;12.30;99.90
12870;DHT22;6503;48.572;13.460;2022-11-14T09:34:03;12.40;99.90
12870;DHT22;6503;48.572;13.460;2022-11-14T09:36:30;12.50;99.90
12870;DHT22;6503;48.572;13.460;2022-11-14T09:38:58;12.70;99.90
12870;DHT22;6503;48.572;13.460;2022-11-14T09:41:26;13.00;99.90
12870;DHT22;6503;48.572;13.460;2022-11-14T09:44:17;13.30;99.90
12870;DHT22;6503;48.572;13.460;2022-11-14T09:46:55;13.50;99.90
12870;DHT22;6503;48.572;13.460;2022-11-14T09:49:28;13.80;99.90
12870;DHT22;6503;48.572;13.460;2022-11-14T09:52:00;13.90;99.90
12870;DHT22;6503;48.572;13.460;2022-11-14T09:54:35;14.10;99.90
12870;DHT22;6503;48.572;13.460;2022-11-14T09:57:13;14.00;99.90
12870;DHT22;6503;48.572;13.460;2022-11-14T09:59:43;13.80;99.90
12870;DHT22;6503;48.572;13.460;2022-11-14T10:05:16;13.30;99.90
12870;DHT22;6503;48.572;13.460;2022-11-14T10:08:02;13.20;99.90
12870;DHT22;6503;48.572;13.460;2022-11-14T10:10:46;13.20;99.90
12870;DHT22;6503;48.572;13.460;2022-11-14T10:13:34;13.20;99.90
12870;DHT22;6503;48.572;13.460;2022-11-14T10:16:13;13.30;99.90
12870;DHT22;6503;48.572;13.460;2022-11-14T10:18:53;13.40;99.90
12870;DHT22;6503;48.572;13.460;2022-11-14T10:21:37;13.60;99.90
12870;DHT22;6503;48.572;13.460;2022-11-14T10:24:17;13.90;99.90
12870;DHT22;6503;48.572;13.460;2022-11-14T10:26:56;14.20;99.90
12870;DHT22;6503;48.572;13.460;2022-11-14T10:29:40;14.30;99.90
12870;DHT22;6503;48.572;13.460;2022-11-14T10:32:26;14.50;99.90
12870;DHT22;6503;48.572;13.460;2022-11-14T10:35:03;14.60;99.90
12870;DHT22;6503;48.572;13.460;2022-11-14T10:37:38;14.80;99.90
12870;DHT22;6503;48.572;13.460;2022-11-14T10:40:15;14.80;99.90
12870;DHT22;6503;48.572;13.460;2022-11-14T10:42:46;14.90;99.90
12870;DHT22;6503;48.572;13.460;2022-11-14T10:45:21;15.00;99.90
12870;DHT22;6503;48.572;13.460;2022-11-14T10:47:56;15.10;99.90
12870;DHT22;6503;48.572;13.460;2022-11-14T10:50:27;15.10;99.90
12870;DHT22;6503;48.572;13.460;2022-11-14T10:52:59;15.20;99.90
12870;DHT22;6503;48.572;13.460;2022-11-14T10:55:28;15.20;99.90
12870;DHT22;6503;48.572;13.460;2022-11-14T10:57:55;15.40;99.90
12870;DHT22;6503;48.572;13.460;2022-11-14T11:00:23;15.40;99.90
12870;DHT22;6503;48.572;13.460;2022-11-14T11:02:54;15.40;99.90
12870;DHT22;6503;48.572;13.460;2022-11-14T11:05:29;15.40;99.90
12870;DHT22;6503;48.572;13.460;2022-11-14T11:07:58;15.10;99.90
12870;DHT22;6503;48.572;13.460;2022-11-14T11:10:45;15.00;99.90
12870;DHT22;6503;48.572;13.460;2022-11-14T11:13:35;15.00;99.90
12870;DHT22;6503;48.572;13.460;2022-11-14T11:16:45;14.90;99.90
12870;DHT22;6503;48.572;13.460;2022-11-14T11:19:35;14.70;99.90
12870;DHT22;6503;48.572;13.460;2022-11-14T11:22:27;14.50;99.90
12870;DHT22;6503;48.572;13.460;2022-11-14T11:28:24;14.40;99.90
12870;DHT22;6503;48.572;13.460;2022-11-14T11:30:56;14.30;99.90
12870;DHT22;6503;48.572;13.460;2022-11-14T11:33:45;14.20;99.90
12870;DHT22;6503;48.572;13.460;2022-11-14T11:36:57;14.10;99.90
12870;DHT22;6503;48.572;13.460;2022-11-14T11:40:01;14.20;99.90
12870;DHT22;6503;48.572;13.460;2022-11-14T11:42:35;14.20;99.90
12870;DHT22;6503;48.572;13.460;2022-11-14T11:45:08;14.20;99.90
12870;DHT22;6503;48.572;13.460;2022-11-14T11:47:43;14.20;99.90
12870;DHT22;6503;48.572;13.460;2022-11-14T11:50:20;14.20;99.90
12870;DHT22;6503;48.572;13.460;2022-11-14T11:52:58;14.20;99.90
12870;DHT22;6503;48.572;13.460;2022-11-14T11:55:29;14.50;99.90
12870;DHT22;6503;48.572;13.460;2022-11-14T11:58:02;14.80;99.90
12870;DHT22;6503;48.572;13.460;2022-11-14T12:00:30;14.80;99.90
12870;DHT22;6503;48.572;13.460;2022-11-14T12:02:59;14.90;99.90
12870;DHT22;6503;48.572;13.460;2022-11-14T12:22:00;15.60;99.90
12870;DHT22;6503;48.572;13.460;2022-11-14T12:28:13;16.10;97.40
12870;DHT22;6503;48.572;13.460;2022-11-14T12:30:45;16.50;91.70
12870;DHT22;6503;48.572;13.460;2022-11-14T12:33:17;16.80;85.30
12870;DHT22;6503;48.572;13.460;2022-11-14T12:35:50;16.70;84.00
12870;DHT22;6503;48.572;13.460;2022-11-14T12:38:19;16.50;86.60
12870;DHT22;6503;48.572;13.460;2022-11-14T12:40:52;16.40;88.30
12870;DHT22;6503;48.572;13.460;2022-11-14T12:43:27;16.30;91.40
12870;DHT22;6503;48.572;13.460;2022-11-14T12:46:00;16.20;93.40
12870;DHT22;6503;48.572;13.460;2022-11-14T12:48:32;16.30;92.80
12870;DHT22;6503;48.572;13.460;2022-11-14T12:51:02;16.30;92.50
12870;DHT22;6503;48.572;13.460;2022-11-14T12:53:40;16.60;90.50
12870;DHT22;6503;48.572;13.460;2022-11-14T12:59:26;17.30;75.20
12870;DHT22;6503;48.572;13.460;2022-11-14T13:02:05;17.50;70.20
12870;DHT22;6503;48.572;13.460;2022-11-14T13:04:45;17.40;66.20
12870;DHT22;6503;48.572;13.460;2022-11-14T13:07:28;17.70;65.40
12870;DHT22;6503;48.572;13.460;2022-11-14T13:10:09;17.80;62.30
12870;DHT22;6503;48.572;13.460;2022-11-14T13:12:38;17.60;67.40
12870;DHT22;6503;48.572;13.460;2022-11-14T13:15:27;17.60;67.70
12870;DHT22;6503;48.572;13.460;2022-11-14T13:18:19;17.50;64.40
12870;DHT22;6503;48.572;13.460;2022-11-14T13:21:05;17.40;64.10
12870;DHT22;6503;48.572;13.460;2022-11-14T13:24:00;17.50;59.80
12870;DHT22;6503;48.572;13.460;2022-11-14T13:26:41;17.40;58.40
12870;DHT22;6503;48.572;13.460;2022-11-14T13:35:57;16.70;72.00
12870;DHT22;6503;48.572;13.460;2022-11-14T13:42:08;16.20;81.90
12870;DHT22;6503;48.572;13.460;2022-11-14T13:44:56;16.00;88.00
12870;DHT22;6503;48.572;13.460;2022-11-14T13:48:02;15.90;91.50
12870;DHT22;6503;48.572;13.460;2022-11-14T13:50:35;15.80;91.80
12870;DHT22;6503;48.572;13.460;2022-11-14T13:53:10;15.70;95.10
12870;DHT22;6503;48.572;13.460;2022-11-14T13:55:53;15.60;94.80
12870;DHT22;6503;48.572;13.460;2022-11-14T13:58:42;15.60;98.10
12870;DHT22;6503;48.572;13.460;2022-11-14T14:01:25;15.60;94.20
12870;DHT22;6503;48.572;13.460;2022-11-14T14:04:08;15.40;94.40
12870;DHT22;6503;48.572;13.460;2022-11-14T14:06:49;15.30;97.20
12870;DHT22;6503;48.572;13.460;2022-11-14T14:09:26;15.30;99.00
12870;DHT22;6503;48.572;13.460;2022-11-14T14:15:15;15.20;99.90
12870;DHT22;6503;48.572;13.460;2022-11-14T14:17:51;15.10;99.90
12870;DHT22;6503;48.572;13.460;2022-11-14T14:20:29;15.00;99.90
12870;DHT22;6503;48.572;13.460;2022-11-14T14:23:05;14.90;99.90
12870;DHT22;6503;48.572;13.460;2022-11-14T14:25:40;14.80;99.90
12870;DHT22;6503;48.572;13.460;2022-11-14T14:28:19;14.70;99.90
12870;DHT22;6503;48.572;13.460;2022-11-14T14:31:09;14.70;99.90
12870;DHT22;6503;48.572;13.460;2022-11-14T14:33:41;14.60;99.90
12870;DHT22;6503;48.572;13.460;2022-11-14T14:36:27;14.40;99.90
12870;DHT22;6503;48.572;13.460;2022-11-14T14:39:14;14.40;99.90
12870;DHT22;6503;48.572;13.460;2022-11-14T14:41:42;14.30;99.90
12870;DHT22;6503;48.572;13.460;2022-11-14T14:44:19;14.30;99.90
12870;DHT22;6503;48.572;13.460;2022-11-14T14:46:50;14.30;99.90
12870;DHT22;6503;48.572;13.460;2022-11-14T14:49:20;14.20;99.90
12870;DHT22;6503;48.572;13.460;2022-11-14T14:51:47;14.10;99.90
12870;DHT22;6503;48.572;13.460;2022-11-14T14:54:22;14.10;99.90
12870;DHT22;6503;48.572;13.460;2022-11-14T14:56:54;14.00;99.90
12870;DHT22;6503;48.572;13.460;2022-11-14T14:59:26;13.90;99.90
12870;DHT22;6503;48.572;13.460;2022-11-14T15:02:01;13.80;99.90
12870;DHT22;6503;48.572;13.460;2022-11-14T15:04:28;13.70;99.90
12870;DHT22;6503;48.572;13.460;2022-11-14T15:06:55;13.70;99.90
12870;DHT22;6503;48.572;13.460;2022-11-14T15:09:26;13.50;99.90
12870;DHT22;6503;48.572;13.460;2022-11-14T15:11:56;13.30;99.90
12870;DHT22;6503;48.572;13.460;2022-11-14T15:14:25;13.20;99.90
12870;DHT22;6503;48.572;13.460;2022-11-14T15:16:54;13.10;99.90
12870;DHT22;6503;48.572;13.460;2022-11-14T15:19:23;13.00;99.90
12870;DHT22;6503;48.572;13.460;2022-11-14T15:22:01;12.90;99.90
12870;DHT22;6503;48.572;13.460;2022-11-14T15:24:29;12.80;99.90
12870;DHT22;6503;48.572;13.460;2022-11-14T15:26:56;12.70;99.90
12870;DHT22;6503;48.572;13.460;2022-11-14T15:29:24;12.60;99.90
12870;DHT22;6503;48.572;13.460;2022-11-14T15:31:53;12.50;99.90
12870;DHT22;6503;48.572;13.460;2022-11-14T15:34:26;12.40;99.90
12870;DHT22;6503;48.572;13.460;2022-11-14T15:37:19;12.20;99.90
12870;DHT22;6503;48.572;13.460;2022-11-14T15:39:47;12.10;99.90
12870;DHT22;6503;48.572;13.460;2022-11-14T15:42:18;12.00;99.90
12870;DHT22;6503;48.572;13.460;2022-11-14T15:44:46;11.90;99.90
12870;DHT22;6503;48.572;13.460;2022-11-14T15:47:19;11.80;99.90
12870;DHT22;6503;48.572;13.460;2022-11-14T15:50:01;11.80;99.90
12870;DHT22;6503;48.572;13.460;2022-11-14T15:52:32;11.70;99.90
12870;DHT22;6503;48.572;13.460;2022-11-14T15:54:59;11.60;99.90
12870;DHT22;6503;48.572;13.460;2022-11-14T15:57:26;11.50;99.90
12870;DHT22;6503;48.572;13.460;2022-11-14T15:59:55;11.40;99.90
12870;DHT22;6503;48.572;13.460;2022-11-14T16:02:24;11.30;99.90
12870;DHT22;6503;48.572;13.460;2022-11-14T16:04:55;11.20;99.90
12870;DHT22;6503;48.572;13.460;2022-11-14T16:07:24;11.10;99.90
12870;DHT22;6503;48.572;13.460;2022-11-14T16:09:52;11.10;99.90
12870;DHT22;6503;48.572;13.460;2022-11-14T16:12:19;11.00;99.90
12870;DHT22;6503;48.572;13.460;2022-11-14T16:14:46;10.90;99.90
12870;DHT22;6503;48.572;13.460;2022-11-14T16:17:16;10.90;99.90
12870;DHT22;6503;48.572;13.460;2022-11-14T16:19:43;10.90;99.90
12870;DHT22;6503;48.572;13.460;2022-11-14T16:22:12;10.80;99.90
12870;DHT22;6503;48.572;13.460;2022-11-14T16:24:42;10.80;99.90
12870;DHT22;6503;48.572;13.460;2022-11-14T16:27:12;10.70;99.90
12870;DHT22;6503;48.572;13.460;2022-11-14T16:29:40;10.60;99.90
12870;DHT22;6503;48.572;13.460;2022-11-14T16:32:09;10.50;99.90
12870;DHT22;6503;48.572;13.460;2022-11-14T16:34:38;10.50;99.90
12870;DHT22;6503;48.572;13.460;2022-11-14T16:37:05;10.50;99.90
12870;DHT22;6503;48.572;13.460;2022-11-14T16:39:31;10.50;99.90
12870;DHT22;6503;48.572;13.460;2022-11-14T16:42:02;10.40;99.90
12870;DHT22;6503;48.572;13.460;2022-11-14T16:44:32;10.40;99.90
12870;DHT22;6503;48.572;13.460;2022-11-14T16:46:59;10.40;99.90
12870;DHT22;6503;48.572;13.460;2022-11-14T16:49:33;10.40;99.90
12870;DHT22;6503;48.572;13.460;2022-11-14T16:52:02;10.50;99.90
12870;DHT22;6503;48.572;13.460;2022-11-14T16:54:35;10.40;99.90
12870;DHT22;6503;48.572;13.460;2022-11-14T16:57:19;10.40;99.90